sensor_id;sensor_type;location;lat;lon;timestamp;temperature;humidity
19496;DHT22;9888;48.606;9.630;2024-01-10T00:00:13;-7.60;99.90
19496;DHT22;9888;48.606;9.630;2024-01-10T00:02:41;-7.60;99.90
19496;DHT22;9888;48.606;9.630;2024-01-10T00:05:09;-7.60;99.90
19496;DHT22;9888;48.606;9.630;2024-01-10T00:07:36;-7.60;99.90
19496;DHT22;9888;48.606;9.630;2024-01-10T00:10:04;-7.70;99.90
19496;DHT22;9888;48.606;9.630;2024-01-10T00:12:32;-7.70;99.90
19496;DHT22;9888;48.606;9.630;2024-01-10T00:15:06;-7.70;99.90
19496;DHT22;9888;48.606;9.630;2024-01-10T00:17:33;-7.70;99.90
19496;DHT22;9888;48.606;9.630;2024-01-10T00:20:01;-7.60;99.90
19496;DHT22;9888;48.606;9.630;2024-01-10T00:22:29;-7.60;99.90
19496;DHT22;9888;48.606;9.630;2024-01-10T00:24:57;-7.60;99.90
19496;DHT22;9888;48.606;9.630;2024-01-10T00:27:25;-7.50;99.90
19496;DHT22;9888;48.606;9.630;2024-01-10T00:29:53;-7.50;99.90
19496;DHT22;9888;48.606;9.630;2024-01-10T00:32:23;-7.40;99.90
19496;DHT22;9888;48.606;9.630;2024-01-10T00:34:50;-7.40;99.90
19496;DHT22;9888;48.606;9.630;2024-01-10T00:37:18;-7.30;99.90
19496;DHT22;9888;48.606;9.630;2024-01-10T00:39:45;-7.30;99.90
19496;DHT22;9888;48.606;9.630;2024-01-10T00:42:12;-7.20;99.90
19496;DHT22;9888;48.606;9.630;2024-01-10T00:44:39;-7.10;99.90
19496;DHT22;9888;48.606;9.630;2024-01-10T00:47:07;-7.10;99.90
19496;DHT22;9888;48.606;9.630;2024-01-10T00:49:36;-7.10;99.90
19496;DHT22;9888;48.606;9.630;2024-01-10T00:52:04;-7.00;99.90
19496;DHT22;9888;48.606;9.630;2024-01-10T00:54:32;-6.90;99.90
19496;DHT22;9888;48.606;9.630;2024-01-10T00:56:59;-6.90;99.90
19496;DHT22;9888;48.606;9.630;2024-01-10T00:59:27;-6.90;99.90
19496;DHT22;9888;48.606;9.630;2024-01-10T01:01:54;-6.80;99.90
19496;DHT22;9888;48.606;9.630;2024-01-10T01:04:22;-6.80;99.90
19496;DHT22;9888;48.606;9.630;2024-01-10T01:06:49;-6.80;99.90
19496;DHT22;9888;48.606;9.630;2024-01-10T01:09:16;-6.80;99.90
19496;DHT22;9888;48.606;9.630;2024-01-10T01:11:44;-6.70;99.90
19496;DHT22;9888;48.606;9.630;2024-01-10T01:14:13;-6.70;99.90
19496;DHT22;9888;48.606;9.630;2024-01-10T01:16:40;-6.70;99.90
19496;DHT22;9888;48.606;9.630;2024-01-10T01:19:08;-6.70;99.90
19496;DHT22;9888;48.606;9.630;2024-01-10T01:21:36;-6.70;99.90
19496;DHT22;9888;48.606;9.630;2024-01-10T01:24:03;-6.70;99.90
19496;DHT22;9888;48.606;9.630;2024-01-10T01:26:31;-6.70;99.90
19496;DHT22;9888;48.606;9.630;2024-01-10T01:28:59;-6.70;99.90
19496;DHT22;9888;48.606;9.630;2024-01-10T01:31:29;-6.70;99.90
19496;DHT22;9888;48.606;9.630;2024-01-10T01:33:57;-6.70;99.90
19496;DHT22;9888;48.606;9.630;2024-01-10T01:36:25;-6.70;99.90
19496;DHT22;9888;48.606;9.630;2024-01-10T01:38:51;-6.80;99.90
19496;DHT22;9888;48.606;9.630;2024-01-10T01:41:19;-6.80;99.90
19496;DHT22;9888;48.606;9.630;2024-01-10T01:43:47;-6.80;99.90
19496;DHT22;9888;48.606;9.630;2024-01-10T01:46:14;-6.90;99.90
19496;DHT22;9888;48.606;9.630;2024-01-10T01:48:42;-6.90;99.90
19496;DHT22;9888;48.606;9.630;2024-01-10T01:51:10;-6.90;99.90
19496;DHT22;9888;48.606;9.630;2024-01-10T01:53:40;-6.90;99.90
19496;DHT22;9888;48.606;9.630;2024-01-10T01:56:08;-6.90;99.90
19496;DHT22;9888;48.606;9.630;2024-01-10T01:58:37;-6.90;99.90
19496;DHT22;9888;48.606;9.630;2024-01-10T02:01:04;-6.90;99.90
19496;DHT22;9888;48.606;9.630;2024-01-10T02:03:35;-6.80;99.90
19496;DHT22;9888;48.606;9.630;2024-01-10T02:06:03;-6.80;99.90
19496;DHT22;9888;48.606;9.630;2024-01-10T02:08:34;-6.80;99.90
19496;DHT22;9888;48.606;9.630;2024-01-10T02:11:03;-6.80;99.90
19496;DHT22;9888;48.606;9.630;2024-01-10T02:13:31;-6.80;99.90
19496;DHT22;9888;48.606;9.630;2024-01-10T02:16:00;-6.80;99.90
19496;DHT22;9888;48.606;9.630;2024-01-10T02:18:28;-6.70;99.90
19496;DHT22;9888;48.606;9.630;2024-01-10T02:20:55;-6.70;99.90
19496;DHT22;9888;48.606;9.630;2024-01-10T02:23:23;-6.70;99.90
19496;DHT22;9888;48.606;9.630;2024-01-10T02:25:51;-6.60;99.90
19496;DHT22;9888;48.606;9.630;2024-01-10T02:28:18;-6.60;99.90
19496;DHT22;9888;48.606;9.630;2024-01-10T02:30:46;-6.60;99.90
19496;DHT22;9888;48.606;9.630;2024-01-10T02:33:14;-6.60;99.90
19496;DHT22;9888;48.606;9.630;2024-01-10T02:35:41;-6.60;99.90
19496;DHT22;9888;48.606;9.630;2024-01-10T02:38:08;-6.60;99.90
19496;DHT22;9888;48.606;9.630;2024-01-10T02:40:35;-6.60;99.90
19496;DHT22;9888;48.606;9.630;2024-01-10T02:43:03;-6.60;99.90
19496;DHT22;9888;48.606;9.630;2024-01-10T02:45:30;-6.60;99.90
19496;DHT22;9888;48.606;9.630;2024-01-10T02:47:57;-6.60;99.90
19496;DHT22;9888;48.606;9.630;2024-01-10T02:50:24;-6.60;99.90
19496;DHT22;9888;48.606;9.630;2024-01-10T02:52:52;-6.60;99.90
19496;DHT22;9888;48.606;9.630;2024-01-10T02:55:19;-6.60;99.90
19496;DHT22;9888;48.606;9.630;2024-01-10T02:57:46;-6.60;99.90
19496;DHT22;9888;48.606;9.630;2024-01-10T03:00:14;-6.60;99.90
19496;DHT22;9888;48.606;9.630;2024-01-10T03:02:42;-6.60;99.90
19496;DHT22;9888;48.606;9.630;2024-01-10T03:05:10;-6.50;99.90
19496;DHT22;9888;48.606;9.630;2024-01-10T03:07:38;-6.50;99.90
19496;DHT22;9888;48.606;9.630;2024-01-10T03:10:05;-6.40;99.90
19496;DHT22;9888;48.606;9.630;2024-01-10T03:12:34;-6.40;99.90
19496;DHT22;9888;48.606;9.630;2024-01-10T03:15:05;-6.40;99.90
19496;DHT22;9888;48.606;9.630;2024-01-10T03:17:32;-6.40;99.90
19496;DHT22;9888;48.606;9.630;2024-01-10T03:20:02;-6.40;99.90
19496;DHT22;9888;48.606;9.630;2024-01-10T03:22:31;-6.40;99.90
19496;DHT22;9888;48.606;9.630;2024-01-10T03:25:02;-6.40;99.90
19496;DHT22;9888;48.606;9.630;2024-01-10T03:27:31;-6.40;99.90
19496;DHT22;9888;48.606;9.630;2024-01-10T03:29:59;-6.40;99.90
19496;DHT22;9888;48.606;9.630;2024-01-10T03:32:26;-6.30;99.90
19496;DHT22;9888;48.606;9.630;2024-01-10T03:34:54;-6.30;99.90
19496;DHT22;9888;48.606;9.630;2024-01-10T03:37:22;-6.30;99.90
19496;DHT22;9888;48.606;9.630;2024-01-10T03:39:49;-6.30;99.90
19496;DHT22;9888;48.606;9.630;2024-01-10T03:42:16;-6.20;99.90
19496;DHT22;9888;48.606;9.630;2024-01-10T03:44:43;-6.20;99.90
19496;DHT22;9888;48.606;9.630;2024-01-10T03:47:11;-6.20;99.90
19496;DHT22;9888;48.606;9.630;2024-01-10T03:49:38;-6.30;99.90
19496;DHT22;9888;48.606;9.630;2024-01-10T03:52:06;-6.20;99.90
19496;DHT22;9888;48.606;9.630;2024-01-10T03:54:38;-6.30;99.90
19496;DHT22;9888;48.606;9.630;2024-01-10T03:57:08;-6.30;99.90
19496;DHT22;9888;48.606;9.630;2024-01-10T03:59:35;-6.40;99.90
19496;DHT22;9888;48.606;9.630;2024-01-10T04:02:02;-6.40;99.90
19496;DHT22;9888;48.606;9.630;2024-01-10T04:04:30;-6.40;99.90
19496;DHT22;9888;48.606;9.630;2024-01-10T04:06:57;-6.40;99.90
19496;DHT22;9888;48.606;9.630;2024-01-10T04:09:24;-6.40;99.90
19496;DHT22;9888;48.606;9.630;2024-01-10T04:11:52;-6.40;99.90
19496;DHT22;9888;48.606;9.630;2024-01-10T04:14:19;-6.40;99.90
19496;DHT22;9888;48.606;9.630;2024-01-10T04:16:46;-6.40;99.90
19496;DHT22;9888;48.606;9.630;2024-01-10T04:19:14;-6.40;99.90
19496;DHT22;9888;48.606;9.630;2024-01-10T04:21:42;-6.40;99.90
19496;DHT22;9888;48.606;9.630;2024-01-10T04:24:10;-6.40;99.90
19496;DHT22;9888;48.606;9.630;2024-01-10T04:26:37;-6.30;99.90
19496;DHT22;9888;48.606;9.630;2024-01-10T04:29:04;-6.30;99.90
19496;DHT22;9888;48.606;9.630;2024-01-10T04:31:32;-6.40;99.90
19496;DHT22;9888;48.606;9.630;2024-01-10T04:33:59;-6.30;99.90
19496;DHT22;9888;48.606;9.630;2024-01-10T04:36:26;-6.30;99.90
19496;DHT22;9888;48.606;9.630;2024-01-10T04:38:54;-6.40;99.90
19496;DHT22;9888;48.606;9.630;2024-01-10T04:41:21;-6.40;99.90
19496;DHT22;9888;48.606;9.630;2024-01-10T04:43:48;-6.40;99.90
19496;DHT22;9888;48.606;9.630;2024-01-10T04:46:17;-6.30;99.90
19496;DHT22;9888;48.606;9.630;2024-01-10T04:48:44;-6.30;99.90
19496;DHT22;9888;48.606;9.630;2024-01-10T04:51:11;-6.20;99.90
19496;DHT22;9888;48.606;9.630;2024-01-10T04:53:39;-6.20;99.90
19496;DHT22;9888;48.606;9.630;2024-01-10T04:56:06;-6.20;99.90
19496;DHT22;9888;48.606;9.630;2024-01-10T04:58:33;-6.20;99.90
19496;DHT22;9888;48.606;9.630;2024-01-10T05:01:01;-6.20;99.90
19496;DHT22;9888;48.606;9.630;2024-01-10T05:03:28;-6.20;99.90
19496;DHT22;9888;48.606;9.630;2024-01-10T05:05:56;-6.20;99.90
19496;DHT22;9888;48.606;9.630;2024-01-10T05:08:23;-6.20;99.90
19496;DHT22;9888;48.606;9.630;2024-01-10T05:10:51;-6.20;99.90
19496;DHT22;9888;48.606;9.630;2024-01-10T05:13:18;-6.20;99.90
19496;DHT22;9888;48.606;9.630;2024-01-10T05:15:46;-6.20;99.90
19496;DHT22;9888;48.606;9.630;2024-01-10T05:18:14;-6.30;99.90
19496;DHT22;9888;48.606;9.630;2024-01-10T05:20:50;-6.30;99.90
19496;DHT22;9888;48.606;9.630;2024-01-10T05:23:23;-6.30;99.90
19496;DHT22;9888;48.606;9.630;2024-01-10T05:25:51;-6.30;99.90
19496;DHT22;9888;48.606;9.630;2024-01-10T05:28:19;-6.40;99.90
19496;DHT22;9888;48.606;9.630;2024-01-10T05:30:46;-6.30;99.90
19496;DHT22;9888;48.606;9.630;2024-01-10T05:33:14;-6.30;99.90
19496;DHT22;9888;48.606;9.630;2024-01-10T05:35:42;-6.30;99.90
19496;DHT22;9888;48.606;9.630;2024-01-10T05:38:10;-6.30;99.90
19496;DHT22;9888;48.606;9.630;2024-01-10T05:40:38;-6.20;99.90
19496;DHT22;9888;48.606;9.630;2024-01-10T05:43:24;-6.20;99.90
19496;DHT22;9888;48.606;9.630;2024-01-10T05:45:52;-6.10;99.90
19496;DHT22;9888;48.606;9.630;2024-01-10T05:48:20;-6.10;99.90
19496;DHT22;9888;48.606;9.630;2024-01-10T05:50:51;-6.00;99.90
19496;DHT22;9888;48.606;9.630;2024-01-10T05:53:24;-6.00;99.90
19496;DHT22;9888;48.606;9.630;2024-01-10T05:55:52;-5.90;99.90
19496;DHT22;9888;48.606;9.630;2024-01-10T05:58:20;-5.80;99.90
19496;DHT22;9888;48.606;9.630;2024-01-10T06:00:47;-5.90;99.90
19496;DHT22;9888;48.606;9.630;2024-01-10T06:03:15;-5.80;99.90
19496;DHT22;9888;48.606;9.630;2024-01-10T06:05:43;-5.80;99.90
19496;DHT22;9888;48.606;9.630;2024-01-10T06:08:12;-5.90;99.90
19496;DHT22;9888;48.606;9.630;2024-01-10T06:10:41;-5.90;99.90
19496;DHT22;9888;48.606;9.630;2024-01-10T06:13:10;-5.90;99.90
19496;DHT22;9888;48.606;9.630;2024-01-10T06:15:40;-5.90;99.90
19496;DHT22;9888;48.606;9.630;2024-01-10T06:18:08;-5.90;99.90
19496;DHT22;9888;48.606;9.630;2024-01-10T06:20:35;-5.90;99.90
19496;DHT22;9888;48.606;9.630;2024-01-10T06:23:06;-6.00;99.90
19496;DHT22;9888;48.606;9.630;2024-01-10T06:25:33;-6.00;99.90
19496;DHT22;9888;48.606;9.630;2024-01-10T06:28:01;-6.00;99.90
19496;DHT22;9888;48.606;9.630;2024-01-10T06:30:29;-6.00;99.90
19496;DHT22;9888;48.606;9.630;2024-01-10T06:32:56;-6.00;99.90
19496;DHT22;9888;48.606;9.630;2024-01-10T06:35:23;-6.10;99.90
19496;DHT22;9888;48.606;9.630;2024-01-10T06:37:50;-6.10;99.90
19496;DHT22;9888;48.606;9.630;2024-01-10T06:40:17;-6.10;99.90
19496;DHT22;9888;48.606;9.630;2024-01-10T06:42:45;-6.10;99.90
19496;DHT22;9888;48.606;9.630;2024-01-10T06:45:12;-6.10;99.90
19496;DHT22;9888;48.606;9.630;2024-01-10T06:47:40;-6.10;99.90
19496;DHT22;9888;48.606;9.630;2024-01-10T06:50:08;-6.20;99.90
19496;DHT22;9888;48.606;9.630;2024-01-10T06:52:36;-6.20;99.90
19496;DHT22;9888;48.606;9.630;2024-01-10T06:55:05;-6.30;99.90
19496;DHT22;9888;48.606;9.630;2024-01-10T06:57:32;-6.30;99.90
19496;DHT22;9888;48.606;9.630;2024-01-10T07:00:02;-6.40;99.90
19496;DHT22;9888;48.606;9.630;2024-01-10T07:02:34;-6.40;99.90
19496;DHT22;9888;48.606;9.630;2024-01-10T07:05:03;-6.50;99.90
19496;DHT22;9888;48.606;9.630;2024-01-10T07:07:34;-6.40;99.90
19496;DHT22;9888;48.606;9.630;2024-01-10T07:10:05;-6.50;99.90
19496;DHT22;9888;48.606;9.630;2024-01-10T07:12:35;-6.50;99.90
19496;DHT22;9888;48.606;9.630;2024-01-10T07:15:03;-6.50;99.90
19496;DHT22;9888;48.606;9.630;2024-01-10T07:17:32;-6.50;99.90
19496;DHT22;9888;48.606;9.630;2024-01-10T07:20:00;-6.50;99.90
19496;DHT22;9888;48.606;9.630;2024-01-10T07:22:27;-6.50;99.90
19496;DHT22;9888;48.606;9.630;2024-01-10T07:24:55;-6.50;99.90
19496;DHT22;9888;48.606;9.630;2024-01-10T07:27:24;-6.50;99.90
19496;DHT22;9888;48.606;9.630;2024-01-10T07:29:53;-6.50;99.90
19496;DHT22;9888;48.606;9.630;2024-01-10T07:32:20;-6.50;99.90
19496;DHT22;9888;48.606;9.630;2024-01-10T07:34:47;-6.40;99.90
19496;DHT22;9888;48.606;9.630;2024-01-10T07:37:19;-6.40;99.90
19496;DHT22;9888;48.606;9.630;2024-01-10T07:39:47;-6.30;99.90
19496;DHT22;9888;48.606;9.630;2024-01-10T07:42:14;-6.20;99.90
19496;DHT22;9888;48.606;9.630;2024-01-10T07:44:41;-6.10;99.90
19496;DHT22;9888;48.606;9.630;2024-01-10T07:47:09;-6.10;99.90
19496;DHT22;9888;48.606;9.630;2024-01-10T07:49:37;-6.00;99.90
19496;DHT22;9888;48.606;9.630;2024-01-10T07:52:04;-5.90;99.90
19496;DHT22;9888;48.606;9.630;2024-01-10T07:54:31;-5.90;99.90
19496;DHT22;9888;48.606;9.630;2024-01-10T07:56:59;-5.80;99.90
19496;DHT22;9888;48.606;9.630;2024-01-10T07:59:26;-5.70;99.90
19496;DHT22;9888;48.606;9.630;2024-01-10T08:01:57;-5.60;99.90
19496;DHT22;9888;48.606;9.630;2024-01-10T08:04:25;-5.50;99.90
19496;DHT22;9888;48.606;9.630;2024-01-10T08:06:53;-5.40;99.90
19496;DHT22;9888;48.606;9.630;2024-01-10T08:09:22;-5.20;99.90
19496;DHT22;9888;48.606;9.630;2024-01-10T08:11:51;-5.00;99.90
19496;DHT22;9888;48.606;9.630;2024-01-10T08:14:18;-4.90;99.90
19496;DHT22;9888;48.606;9.630;2024-01-10T08:16:45;-4.80;99.90
19496;DHT22;9888;48.606;9.630;2024-01-10T08:19:14;-4.60;99.90
19496;DHT22;9888;48.606;9.630;2024-01-10T08:21:42;-4.50;99.90
19496;DHT22;9888;48.606;9.630;2024-01-10T08:24:09;-4.40;99.90
19496;DHT22;9888;48.606;9.630;2024-01-10T08:26:36;-4.30;99.90
19496;DHT22;9888;48.606;9.630;2024-01-10T08:29:05;-4.10;99.90
19496;DHT22;9888;48.606;9.630;2024-01-10T08:31:32;-4.00;99.90
19496;DHT22;9888;48.606;9.630;2024-01-10T08:33:59;-3.90;99.90
19496;DHT22;9888;48.606;9.630;2024-01-10T08:36:27;-3.80;99.90
19496;DHT22;9888;48.606;9.630;2024-01-10T08:38:54;-3.90;99.90
19496;DHT22;9888;48.606;9.630;2024-01-10T08:41:22;-3.90;99.90
19496;DHT22;9888;48.606;9.630;2024-01-10T08:43:49;-4.00;99.90
19496;DHT22;9888;48.606;9.630;2024-01-10T08:46:17;-4.00;99.90
19496;DHT22;9888;48.606;9.630;2024-01-10T08:48:45;-3.90;99.90
19496;DHT22;9888;48.606;9.630;2024-01-10T08:51:14;-3.70;99.90
19496;DHT22;9888;48.606;9.630;2024-01-10T08:53:43;-3.30;99.90
19496;DHT22;9888;48.606;9.630;2024-01-10T08:56:10;-2.90;99.90
19496;DHT22;9888;48.606;9.630;2024-01-10T08:58:37;-2.10;99.90
19496;DHT22;9888;48.606;9.630;2024-01-10T09:01:06;-1.50;99.90
19496;DHT22;9888;48.606;9.630;2024-01-10T09:03:34;-0.90;99.90
19496;DHT22;9888;48.606;9.630;2024-01-10T09:06:01;0.10;99.90
19496;DHT22;9888;48.606;9.630;2024-01-10T09:08:30;1.50;99.90
19496;DHT22;9888;48.606;9.630;2024-01-10T09:10:57;2.60;99.90
19496;DHT22;9888;48.606;9.630;2024-01-10T09:13:25;3.20;99.90
19496;DHT22;9888;48.606;9.630;2024-01-10T09:15:52;2.80;99.90
19496;DHT22;9888;48.606;9.630;2024-01-10T09:18:19;3.40;99.90
19496;DHT22;9888;48.606;9.630;2024-01-10T09:20:48;4.20;99.90
19496;DHT22;9888;48.606;9.630;2024-01-10T09:23:15;4.40;99.90
19496;DHT22;9888;48.606;9.630;2024-01-10T09:25:43;4.60;99.90
19496;DHT22;9888;48.606;9.630;2024-01-10T09:28:10;5.00;99.90
19496;DHT22;9888;48.606;9.630;2024-01-10T09:30:37;4.60;99.90
19496;DHT22;9888;48.606;9.630;2024-01-10T09:33:05;4.40;99.90
19496;DHT22;9888;48.606;9.630;2024-01-10T09:35:33;4.70;99.90
19496;DHT22;9888;48.606;9.630;2024-01-10T09:38:00;5.10;99.90
19496;DHT22;9888;48.606;9.630;2024-01-10T09:40:28;5.60;99.90
19496;DHT22;9888;48.606;9.630;2024-01-10T09:42:55;5.40;99.90
19496;DHT22;9888;48.606;9.630;2024-01-10T09:45:24;6.10;99.90
19496;DHT22;9888;48.606;9.630;2024-01-10T09:47:55;7.20;99.90
19496;DHT22;9888;48.606;9.630;2024-01-10T09:50:25;7.70;99.90
19496;DHT22;9888;48.606;9.630;2024-01-10T09:52:56;7.30;99.90
19496;DHT22;9888;48.606;9.630;2024-01-10T09:55:33;6.90;99.90
19496;DHT22;9888;48.606;9.630;2024-01-10T09:58:05;6.50;99.90
19496;DHT22;9888;48.606;9.630;2024-01-10T10:00:33;6.60;99.90
19496;DHT22;9888;48.606;9.630;2024-01-10T10:03:09;7.40;99.90
19496;DHT22;9888;48.606;9.630;2024-01-10T10:05:40;8.20;99.90
19496;DHT22;9888;48.606;9.630;2024-01-10T10:08:11;8.90;99.90
19496;DHT22;9888;48.606;9.630;2024-01-10T10:10:43;8.50;99.90
19496;DHT22;9888;48.606;9.630;2024-01-10T10:13:11;9.30;99.90
19496;DHT22;9888;48.606;9.630;2024-01-10T10:16:03;10.20;99.90
19496;DHT22;9888;48.606;9.630;2024-01-10T10:18:31;10.90;99.90
19496;DHT22;9888;48.606;9.630;2024-01-10T10:21:12;10.50;99.90
19496;DHT22;9888;48.606;9.630;2024-01-10T10:23:56;9.10;99.90
19496;DHT22;9888;48.606;9.630;2024-01-10T10:26:27;10.00;99.90
19496;DHT22;9888;48.606;9.630;2024-01-10T10:28:55;10.40;99.90
19496;DHT22;9888;48.606;9.630;2024-01-10T10:31:24;10.90;99.50
19496;DHT22;9888;48.606;9.630;2024-01-10T10:33:52;11.60;98.80
19496;DHT22;9888;48.606;9.630;2024-01-10T10:36:20;11.80;97.70
19496;DHT22;9888;48.606;9.630;2024-01-10T10:38:50;11.60;97.20
19496;DHT22;9888;48.606;9.630;2024-01-10T10:41:22;12.10;97.40
19496;DHT22;9888;48.606;9.630;2024-01-10T10:43:54;12.20;96.60
19496;DHT22;9888;48.606;9.630;2024-01-10T10:46:24;12.70;96.70
19496;DHT22;9888;48.606;9.630;2024-01-10T10:48:55;12.60;96.20
19496;DHT22;9888;48.606;9.630;2024-01-10T10:51:34;12.70;95.40
19496;DHT22;9888;48.606;9.630;2024-01-10T10:54:04;11.90;96.20
19496;DHT22;9888;48.606;9.630;2024-01-10T10:56:33;12.10;96.10
19496;DHT22;9888;48.606;9.630;2024-01-10T10:59:04;12.80;96.00
19496;DHT22;9888;48.606;9.630;2024-01-10T11:01:32;12.30;95.50
19496;DHT22;9888;48.606;9.630;2024-01-10T11:04:01;12.00;96.20
19496;DHT22;9888;48.606;9.630;2024-01-10T11:06:29;12.70;95.10
19496;DHT22;9888;48.606;9.630;2024-01-10T11:09:08;13.20;94.50
19496;DHT22;9888;48.606;9.630;2024-01-10T11:12:03;13.60;94.10
19496;DHT22;9888;48.606;9.630;2024-01-10T11:15:00;13.90;95.20
19496;DHT22;9888;48.606;9.630;2024-01-10T11:17:52;13.60;94.00
19496;DHT22;9888;48.606;9.630;2024-01-10T11:23:48;12.60;93.20
19496;DHT22;9888;48.606;9.630;2024-01-10T11:26:16;11.60;93.20
19496;DHT22;9888;48.606;9.630;2024-01-10T11:28:45;11.80;95.20
19496;DHT22;9888;48.606;9.630;2024-01-10T11:31:14;12.10;94.20
19496;DHT22;9888;48.606;9.630;2024-01-10T11:33:46;11.30;94.30
19496;DHT22;9888;48.606;9.630;2024-01-10T11:39:05;10.90;94.30
19496;DHT22;9888;48.606;9.630;2024-01-10T11:41:34;11.70;95.00
19496;DHT22;9888;48.606;9.630;2024-01-10T11:46:46;12.30;94.80
19496;DHT22;9888;48.606;9.630;2024-01-10T11:49:16;12.60;94.60
19496;DHT22;9888;48.606;9.630;2024-01-10T11:51:44;13.20;94.10
19496;DHT22;9888;48.606;9.630;2024-01-10T11:54:12;12.90;92.40
19496;DHT22;9888;48.606;9.630;2024-01-10T11:57:01;12.90;93.50
19496;DHT22;9888;48.606;9.630;2024-01-10T11:59:28;13.40;93.90
19496;DHT22;9888;48.606;9.630;2024-01-10T12:01:57;13.30;92.40
19496;DHT22;9888;48.606;9.630;2024-01-10T12:04:25;11.80;93.10
19496;DHT22;9888;48.606;9.630;2024-01-10T12:06:56;10.80;93.10
19496;DHT22;9888;48.606;9.630;2024-01-10T12:09:24;8.60;93.90
19496;DHT22;9888;48.606;9.630;2024-01-10T12:11:51;7.40;95.30
19496;DHT22;9888;48.606;9.630;2024-01-10T12:14:19;6.20;96.60
19496;DHT22;9888;48.606;9.630;2024-01-10T12:16:47;5.60;97.50
19496;DHT22;9888;48.606;9.630;2024-01-10T12:19:14;4.60;98.30
19496;DHT22;9888;48.606;9.630;2024-01-10T12:21:41;3.60;99.60
19496;DHT22;9888;48.606;9.630;2024-01-10T12:24:08;2.70;99.90
19496;DHT22;9888;48.606;9.630;2024-01-10T12:26:34;2.10;99.90
19496;DHT22;9888;48.606;9.630;2024-01-10T12:29:02;1.70;99.90
19496;DHT22;9888;48.606;9.630;2024-01-10T12:31:31;1.60;99.90
19496;DHT22;9888;48.606;9.630;2024-01-10T12:34:00;1.40;99.90
19496;DHT22;9888;48.606;9.630;2024-01-10T12:36:27;1.10;99.90
19496;DHT22;9888;48.606;9.630;2024-01-10T12:38:53;0.70;99.90
19496;DHT22;9888;48.606;9.630;2024-01-10T12:41:20;0.50;99.90
19496;DHT22;9888;48.606;9.630;2024-01-10T12:43:52;0.30;99.90
19496;DHT22;9888;48.606;9.630;2024-01-10T12:46:21;0.40;99.90
19496;DHT22;9888;48.606;9.630;2024-01-10T12:49:05;0.40;99.90
19496;DHT22;9888;48.606;9.630;2024-01-10T12:51:34;0.40;99.90
19496;DHT22;9888;48.606;9.630;2024-01-10T12:54:03;0.30;99.90
19496;DHT22;9888;48.606;9.630;2024-01-10T12:56:33;0.20;99.90
19496;DHT22;9888;48.606;9.630;2024-01-10T12:59:01;0.40;99.90
19496;DHT22;9888;48.606;9.630;2024-01-10T13:01:28;0.30;99.90
19496;DHT22;9888;48.606;9.630;2024-01-10T13:03:55;0.20;99.90
19496;DHT22;9888;48.606;9.630;2024-01-10T13:06:22;0.00;99.90
19496;DHT22;9888;48.606;9.630;2024-01-10T13:08:49;-0.20;99.90
19496;DHT22;9888;48.606;9.630;2024-01-10T13:11:16;-0.40;99.90
19496;DHT22;9888;48.606;9.630;2024-01-10T13:13:43;-0.50;99.90
19496;DHT22;9888;48.606;9.630;2024-01-10T13:16:10;-0.70;99.90
19496;DHT22;9888;48.606;9.630;2024-01-10T13:18:40;-0.80;99.90
19496;DHT22;9888;48.606;9.630;2024-01-10T13:21:07;-0.90;99.90
19496;DHT22;9888;48.606;9.630;2024-01-10T13:23:34;-1.00;99.90
19496;DHT22;9888;48.606;9.630;2024-01-10T13:26:02;-1.00;99.90
19496;DHT22;9888;48.606;9.630;2024-01-10T13:28:29;-1.10;99.90
19496;DHT22;9888;48.606;9.630;2024-01-10T13:30:56;-1.20;99.90
19496;DHT22;9888;48.606;9.630;2024-01-10T13:33:23;-1.30;99.90
19496;DHT22;9888;48.606;9.630;2024-01-10T13:35:52;-1.30;99.90
19496;DHT22;9888;48.606;9.630;2024-01-10T13:38:18;-1.40;99.90
19496;DHT22;9888;48.606;9.630;2024-01-10T13:40:46;-1.40;99.90
19496;DHT22;9888;48.606;9.630;2024-01-10T13:43:13;-1.40;99.90
19496;DHT22;9888;48.606;9.630;2024-01-10T13:45:39;-1.50;99.90
19496;DHT22;9888;48.606;9.630;2024-01-10T13:48:07;-1.60;99.90
19496;DHT22;9888;48.606;9.630;2024-01-10T13:50:34;-1.70;99.90
19496;DHT22;9888;48.606;9.630;2024-01-10T13:53:01;-1.70;99.90
19496;DHT22;9888;48.606;9.630;2024-01-10T13:55:30;-1.70;99.90
19496;DHT22;9888;48.606;9.630;2024-01-10T13:57:57;-1.70;99.90
19496;DHT22;9888;48.606;9.630;2024-01-10T14:00:25;-1.70;99.90
19496;DHT22;9888;48.606;9.630;2024-01-10T14:02:53;-1.80;99.90
19496;DHT22;9888;48.606;9.630;2024-01-10T14:05:28;-1.90;99.90
19496;DHT22;9888;48.606;9.630;2024-01-10T14:07:55;-2.00;99.90
19496;DHT22;9888;48.606;9.630;2024-01-10T14:10:23;-2.10;99.90
19496;DHT22;9888;48.606;9.630;2024-01-10T14:12:50;-2.10;99.90
19496;DHT22;9888;48.606;9.630;2024-01-10T14:15:17;-2.10;99.90
19496;DHT22;9888;48.606;9.630;2024-01-10T14:17:44;-2.20;99.90
19496;DHT22;9888;48.606;9.630;2024-01-10T14:20:11;-2.20;99.90
19496;DHT22;9888;48.606;9.630;2024-01-10T14:22:39;-2.30;99.90
19496;DHT22;9888;48.606;9.630;2024-01-10T14:25:08;-2.30;99.90
19496;DHT22;9888;48.606;9.630;2024-01-10T14:27:35;-2.30;99.90
19496;DHT22;9888;48.606;9.630;2024-01-10T14:30:05;-2.40;99.90
19496;DHT22;9888;48.606;9.630;2024-01-10T14:32:35;-2.40;99.90
19496;DHT22;9888;48.606;9.630;2024-01-10T14:35:03;-2.50;99.90
19496;DHT22;9888;48.606;9.630;2024-01-10T14:37:30;-2.60;99.90
19496;DHT22;9888;48.606;9.630;2024-01-10T14:39:59;-2.70;99.90
19496;DHT22;9888;48.606;9.630;2024-01-10T14:42:26;-2.80;99.90
19496;DHT22;9888;48.606;9.630;2024-01-10T14:44:54;-2.80;99.90
19496;DHT22;9888;48.606;9.630;2024-01-10T14:47:20;-2.90;99.90
19496;DHT22;9888;48.606;9.630;2024-01-10T14:49:48;-2.90;99.90
19496;DHT22;9888;48.606;9.630;2024-01-10T14:52:15;-3.00;99.90
19496;DHT22;9888;48.606;9.630;2024-01-10T14:54:41;-3.00;99.90
19496;DHT22;9888;48.606;9.630;2024-01-10T14:57:08;-3.00;99.90
19496;DHT22;9888;48.606;9.630;2024-01-10T14:59:35;-3.10;99.90
19496;DHT22;9888;48.606;9.630;2024-01-10T15:02:04;-3.30;99.90
19496;DHT22;9888;48.606;9.630;2024-01-10T15:04:37;-3.30;99.90
19496;DHT22;9888;48.606;9.630;2024-01-10T15:07:05;-3.40;99.90
19496;DHT22;9888;48.606;9.630;2024-01-10T15:09:37;-3.40;99.90
19496;DHT22;9888;48.606;9.630;2024-01-10T15:12:05;-3.50;99.90
19496;DHT22;9888;48.606;9.630;2024-01-10T15:14:36;-3.50;99.90
19496;DHT22;9888;48.606;9.630;2024-01-10T15:17:08;-3.60;99.90
19496;DHT22;9888;48.606;9.630;2024-01-10T15:19:36;-3.70;99.90
19496;DHT22;9888;48.606;9.630;2024-01-10T15:22:03;-3.80;99.90
19496;DHT22;9888;48.606;9.630;2024-01-10T15:24:30;-3.80;99.90
19496;DHT22;9888;48.606;9.630;2024-01-10T15:27:03;-3.90;99.90
19496;DHT22;9888;48.606;9.630;2024-01-10T15:29:35;-3.90;99.90
19496;DHT22;9888;48.606;9.630;2024-01-10T15:32:03;-3.90;99.90
19496;DHT22;9888;48.606;9.630;2024-01-10T15:34:30;-4.00;99.90
19496;DHT22;9888;48.606;9.630;2024-01-10T15:36:57;-4.10;99.90
19496;DHT22;9888;48.606;9.630;2024-01-10T15:39:24;-4.20;99.90
19496;DHT22;9888;48.606;9.630;2024-01-10T15:41:52;-4.30;99.90
19496;DHT22;9888;48.606;9.630;2024-01-10T15:44:20;-4.30;99.90
19496;DHT22;9888;48.606;9.630;2024-01-10T15:46:47;-4.30;99.90
19496;DHT22;9888;48.606;9.630;2024-01-10T15:49:14;-4.40;99.90
19496;DHT22;9888;48.606;9.630;2024-01-10T15:51:42;-4.50;99.90
19496;DHT22;9888;48.606;9.630;2024-01-10T15:54:10;-4.60;99.90
19496;DHT22;9888;48.606;9.630;2024-01-10T15:56:37;-4.70;99.90
19496;DHT22;9888;48.606;9.630;2024-01-10T15:59:07;-4.70;99.90
19496;DHT22;9888;48.606;9.630;2024-01-10T16:01:35;-4.80;99.90
19496;DHT22;9888;48.606;9.630;2024-01-10T16:04:02;-4.90;99.90